createdAt,value
2023-04-08T00:00:16.378Z,0.00
2023-04-08T00:01:16.396Z,0.00
2023-04-08T00:02:16.417Z,0.00
2023-04-08T00:03:16.532Z,0.00
2023-04-08T00:04:16.527Z,0.00
2023-04-08T00:05:16.332Z,0.00
2023-04-08T00:06:16.320Z,0.00
2023-04-08T00:07:16.295Z,0.00
2023-04-08T00:08:16.286Z,0.00
2023-04-08T00:09:16.278Z,0.00
2023-04-08T00:10:16.279Z,0.00
2023-04-08T00:11:16.263Z,0.00
2023-04-08T00:12:16.250Z,0.00
2023-04-08T00:13:16.230Z,0.00
2023-04-08T00:14:16.220Z,0.00
2023-04-08T00:15:16.213Z,0.00
2023-04-08T00:16:16.256Z,0.00
2023-04-08T00:17:16.208Z,0.00
2023-04-08T00:18:16.188Z,0.00
2023-04-08T00:19:16.175Z,0.00
2023-04-08T00:20:16.171Z,0.00
2023-04-08T00:21:16.138Z,0.00
2023-04-08T00:22:16.131Z,0.00
2023-04-08T00:23:16.121Z,0.00
2023-04-08T00:24:16.109Z,0.00
2023-04-08T00:25:16.112Z,0.00
2023-04-08T00:26:16.092Z,0.00
2023-04-08T00:27:16.074Z,0.00
2023-04-08T00:28:16.067Z,0.00
2023-04-08T00:29:16.063Z,0.00
2023-04-08T00:30:16.062Z,0.00
2023-04-08T00:31:16.085Z,0.00
2023-04-08T00:32:16.016Z,0.00
2023-04-08T00:33:16.029Z,0.00
2023-04-08T00:34:16.006Z,0.00
2023-04-08T00:35:16.030Z,0.00
2023-04-08T00:36:15.980Z,0.00
2023-04-08T00:37:15.963Z,0.00
2023-04-08T00:38:15.962Z,0.00
2023-04-08T00:39:15.944Z,0.00
2023-04-08T00:40:15.941Z,0.00
2023-04-08T00:41:15.915Z,0.00
2023-04-08T00:42:15.910Z,0.00
2023-04-08T00:43:15.894Z,0.00
2023-04-08T00:44:15.885Z,0.00
2023-04-08T00:45:15.892Z,0.00
2023-04-08T00:46:15.947Z,0.00
2023-04-08T00:47:15.849Z,0.00
2023-04-08T00:48:15.849Z,0.00
2023-04-08T00:49:15.855Z,0.00
2023-04-08T00:50:15.822Z,0.00
2023-04-08T00:51:15.808Z,0.00
2023-04-08T00:52:15.791Z,0.00
2023-04-08T00:53:15.782Z,0.00
2023-04-08T00:54:15.770Z,0.00
2023-04-08T00:55:15.767Z,0.00
2023-04-08T00:56:15.769Z,0.00
2023-04-08T00:57:15.738Z,0.00
2023-04-08T00:58:15.726Z,0.00
2023-04-08T00:59:15.737Z,0.00
2023-04-08T01:00:15.704Z,0.00
2023-04-08T01:01:15.783Z,0.00
2023-04-08T01:02:15.933Z,0.00
2023-04-08T01:03:16.163Z,0.00
2023-04-08T01:04:15.853Z,0.00
2023-04-08T01:05:15.712Z,0.00
2023-04-08T01:06:15.643Z,0.00
2023-04-08T01:07:15.631Z,0.00
2023-04-08T01:08:15.616Z,0.00
2023-04-08T01:09:15.608Z,0.00
2023-04-08T01:10:15.593Z,0.00
2023-04-08T01:11:15.581Z,0.00
2023-04-08T01:12:15.576Z,0.00
2023-04-08T01:13:15.557Z,0.00
2023-04-08T01:14:15.548Z,0.00
2023-04-08T01:15:15.544Z,0.00
2023-04-08T01:16:15.634Z,0.00
2023-04-08T01:17:15.519Z,0.00
2023-04-08T01:18:15.509Z,0.00
2023-04-08T01:19:15.499Z,0.00
2023-04-08T01:20:15.492Z,0.00
2023-04-08T01:21:15.492Z,0.00
2023-04-08T01:22:15.461Z,0.00
2023-04-08T01:23:15.452Z,0.00
2023-04-08T01:24:15.443Z,0.00
2023-04-08T01:25:15.441Z,0.00
2023-04-08T01:26:15.412Z,0.00
2023-04-08T01:27:15.401Z,0.00
2023-04-08T01:28:15.393Z,0.00
2023-04-08T01:29:15.381Z,0.00
2023-04-08T01:30:15.386Z,0.00
2023-04-08T01:31:15.402Z,0.00
2023-04-08T01:32:15.352Z,0.00
2023-04-08T01:33:15.334Z,0.00
2023-04-08T01:34:15.328Z,0.00
2023-04-08T01:35:15.319Z,0.00
2023-04-08T01:36:15.307Z,0.00
2023-04-08T01:37:15.314Z,0.00
2023-04-08T01:38:15.310Z,0.00
2023-04-08T01:39:15.269Z,0.00
2023-04-08T01:40:15.264Z,0.00
2023-04-08T01:41:15.246Z,0.00
2023-04-08T01:42:15.236Z,0.00
2023-04-08T01:43:15.225Z,0.00
2023-04-08T01:44:15.216Z,0.00
2023-04-08T01:45:15.208Z,0.00
2023-04-08T01:46:15.281Z,0.00
2023-04-08T01:47:15.188Z,0.00
2023-04-08T01:48:15.177Z,0.00
2023-04-08T01:49:15.159Z,0.00
2023-04-08T01:50:15.153Z,0.00
2023-04-08T01:51:15.148Z,0.00
2023-04-08T01:52:15.125Z,0.00
2023-04-08T01:53:15.143Z,0.00
2023-04-08T01:54:15.105Z,0.00
2023-04-08T01:55:15.097Z,0.00
2023-04-08T01:56:15.080Z,0.00
2023-04-08T01:57:15.079Z,0.00
2023-04-08T01:58:15.065Z,0.00
2023-04-08T01:59:15.049Z,0.00
2023-04-08T02:00:15.042Z,0.00
2023-04-08T02:01:15.028Z,0.00
2023-04-08T02:02:15.100Z,0.00
2023-04-08T02:03:15.320Z,0.00
2023-04-08T02:04:15.150Z,0.00
2023-04-08T02:05:14.981Z,0.00
2023-04-08T02:06:14.968Z,0.00
2023-04-08T02:07:14.968Z,0.00
2023-04-08T02:08:14.981Z,0.00
2023-04-08T02:09:15.004Z,0.00
2023-04-08T02:10:14.924Z,0.00
2023-04-08T02:11:14.930Z,0.00
2023-04-08T02:12:14.919Z,0.00
2023-04-08T02:13:14.894Z,0.00
2023-04-08T02:14:14.890Z,0.00
2023-04-08T02:15:14.899Z,0.00
2023-04-08T02:16:14.886Z,0.00
2023-04-08T02:17:14.859Z,0.00
2023-04-08T02:18:14.886Z,0.00
2023-04-08T02:19:14.831Z,0.00
2023-04-08T02:20:14.813Z,0.00
2023-04-08T02:21:14.801Z,0.00
2023-04-08T02:22:14.800Z,0.00
2023-04-08T02:23:14.820Z,0.00
2023-04-08T02:24:14.767Z,0.00
2023-04-08T02:25:14.860Z,0.00
2023-04-08T02:26:14.747Z,0.00
2023-04-08T02:27:14.739Z,0.00
2023-04-08T02:28:14.723Z,0.00
2023-04-08T02:29:14.728Z,0.00
2023-04-08T02:30:14.702Z,0.00
2023-04-08T02:31:14.742Z,0.00
2023-04-08T02:32:14.681Z,0.00
2023-04-08T02:33:14.677Z,0.00
2023-04-08T02:34:14.656Z,0.00
2023-04-08T02:35:14.648Z,0.00
2023-04-08T02:36:14.637Z,0.00
2023-04-08T02:37:14.622Z,0.00
2023-04-08T02:38:14.612Z,0.00
2023-04-08T02:39:14.598Z,0.00
2023-04-08T02:40:14.588Z,0.00
2023-04-08T02:41:14.609Z,0.00
2023-04-08T02:42:14.566Z,0.00
2023-04-08T02:43:14.564Z,0.00
2023-04-08T02:44:14.559Z,0.00
2023-04-08T02:45:14.533Z,0.00
2023-04-08T02:46:14.562Z,0.00
2023-04-08T02:47:14.509Z,0.00
2023-04-08T02:48:14.498Z,0.00
2023-04-08T02:49:14.490Z,0.00
2023-04-08T02:50:14.478Z,0.00
2023-04-08T02:51:14.470Z,0.00
2023-04-08T02:52:14.454Z,0.00
2023-04-08T02:53:14.445Z,0.00
2023-04-08T02:54:14.434Z,0.00
2023-04-08T02:55:14.440Z,0.00
2023-04-08T02:56:14.405Z,0.00
2023-04-08T02:57:14.423Z,0.00
2023-04-08T02:58:14.387Z,0.00
2023-04-08T02:59:14.375Z,0.00
2023-04-08T03:00:14.360Z,0.00
2023-04-08T03:01:14.383Z,0.00
2023-04-08T03:02:14.367Z,0.00
2023-04-08T03:03:14.426Z,0.00
2023-04-08T03:04:14.317Z,0.00
2023-04-08T03:05:14.306Z,0.00
2023-04-08T03:06:14.295Z,0.00
2023-04-08T03:07:14.280Z,0.00
2023-04-08T03:08:14.268Z,0.00
2023-04-08T03:09:14.268Z,0.00
2023-04-08T03:10:14.246Z,0.00
2023-04-08T03:11:14.236Z,0.00
2023-04-08T03:12:14.224Z,0.00
2023-04-08T03:13:14.243Z,0.00
2023-04-08T03:14:14.204Z,0.00
2023-04-08T03:15:14.190Z,0.00
2023-04-08T03:16:14.342Z,0.00
2023-04-08T03:17:14.178Z,0.00
2023-04-08T03:18:14.155Z,0.00
2023-04-08T03:19:14.147Z,0.00
2023-04-08T03:20:14.135Z,0.00
2023-04-08T03:21:14.127Z,0.00
2023-04-08T03:22:14.112Z,0.00
2023-04-08T03:23:14.104Z,0.00
2023-04-08T03:24:14.094Z,0.00
2023-04-08T03:25:14.081Z,0.00
2023-04-08T03:26:14.068Z,0.00
2023-04-08T03:27:14.059Z,0.00
2023-04-08T03:28:14.051Z,0.00
2023-04-08T03:29:14.084Z,0.00
2023-04-08T03:30:14.042Z,0.00
2023-04-08T03:31:14.051Z,0.00
2023-04-08T03:32:14.028Z,0.00
2023-04-08T03:33:13.998Z,0.00
2023-04-08T03:34:14.001Z,0.00
2023-04-08T03:35:13.977Z,0.00
2023-04-08T03:36:13.958Z,0.00
2023-04-08T03:37:13.951Z,0.00
2023-04-08T03:38:13.940Z,0.00
2023-04-08T03:39:13.925Z,0.00
2023-04-08T03:40:13.920Z,0.00
2023-04-08T03:41:13.902Z,0.00
2023-04-08T03:42:13.888Z,0.00
2023-04-08T03:43:13.892Z,0.00
2023-04-08T03:44:13.866Z,0.00
2023-04-08T03:45:13.878Z,0.00
2023-04-08T03:46:13.857Z,0.00
2023-04-08T03:47:13.835Z,0.00
2023-04-08T03:48:13.820Z,0.00
2023-04-08T03:49:13.815Z,0.00
2023-04-08T03:50:13.804Z,0.00
2023-04-08T03:51:13.790Z,0.00
2023-04-08T03:52:13.790Z,0.00
2023-04-08T03:53:13.772Z,0.00
2023-04-08T03:54:13.763Z,0.00
2023-04-08T03:55:13.746Z,0.00
2023-04-08T03:56:13.730Z,0.00
2023-04-08T03:57:13.728Z,0.00
2023-04-08T03:58:13.711Z,0.00
2023-04-08T03:59:13.699Z,0.00
2023-04-08T04:00:13.691Z,0.00
2023-04-08T04:01:13.714Z,0.00
2023-04-08T04:02:13.745Z,0.00
2023-04-08T04:03:13.818Z,0.00
2023-04-08T04:04:13.874Z,0.00
2023-04-08T04:05:13.637Z,0.00
2023-04-08T04:06:13.617Z,0.00
2023-04-08T04:07:13.610Z,0.00
2023-04-08T04:08:13.592Z,0.00
2023-04-08T04:09:13.585Z,0.00
2023-04-08T04:10:13.577Z,0.00
2023-04-08T04:11:13.561Z,0.00
2023-04-08T04:12:13.552Z,4.00
2023-04-08T04:13:13.542Z,4.00
2023-04-08T04:14:13.526Z,0.00
2023-04-08T04:15:13.517Z,4.00
2023-04-08T04:16:13.551Z,4.00
2023-04-08T04:17:13.527Z,4.00
2023-04-08T04:18:13.505Z,8.00
2023-04-08T04:19:13.473Z,8.00
2023-04-08T04:20:13.460Z,8.00
2023-04-08T04:21:13.465Z,8.00
2023-04-08T04:22:13.440Z,12.00
2023-04-08T04:23:13.436Z,12.00
2023-04-08T04:24:13.431Z,16.00
2023-04-08T04:25:13.419Z,16.00
2023-04-08T04:26:13.397Z,20.00
2023-04-08T04:27:13.381Z,24.00
2023-04-08T04:28:13.371Z,24.00
2023-04-08T04:29:13.362Z,32.00
2023-04-08T04:30:13.347Z,36.00
2023-04-08T04:31:13.357Z,44.00
2023-04-08T04:32:13.321Z,48.00
2023-04-08T04:33:13.339Z,60.00
2023-04-08T04:34:13.303Z,72.00
2023-04-08T04:35:13.293Z,76.00
2023-04-08T04:36:13.282Z,80.00
2023-04-08T04:37:13.277Z,84.00
2023-04-08T04:38:13.256Z,88.00
2023-04-08T04:39:13.249Z,88.00
2023-04-08T04:40:13.243Z,96.00
2023-04-08T04:41:13.226Z,104.00
2023-04-08T04:42:13.212Z,112.00
2023-04-08T04:43:13.209Z,132.00
2023-04-08T04:44:13.190Z,148.00
2023-04-08T04:45:13.182Z,164.00
2023-04-08T04:46:13.348Z,184.00
2023-04-08T04:47:13.156Z,192.00
2023-04-08T04:48:13.150Z,204.00
2023-04-08T04:49:13.156Z,212.00
2023-04-08T04:50:13.126Z,208.00
2023-04-08T04:51:13.113Z,196.00
2023-04-08T04:52:13.100Z,208.00
2023-04-08T04:53:13.094Z,236.00
2023-04-08T04:54:13.077Z,256.00
2023-04-08T04:55:13.067Z,272.00
2023-04-08T04:56:13.100Z,284.00
2023-04-08T04:57:13.051Z,276.00
2023-04-08T04:58:13.031Z,280.00
2023-04-08T04:59:13.033Z,300.00
2023-04-08T05:00:13.019Z,320.00
2023-04-08T05:01:13.038Z,340.00
2023-04-08T05:02:13.057Z,348.00
2023-04-08T05:03:13.041Z,368.00
2023-04-08T05:04:12.971Z,408.00
2023-04-08T05:05:13.021Z,468.00
2023-04-08T05:06:12.947Z,524.00
2023-04-08T05:07:12.938Z,596.00
2023-04-08T05:08:12.923Z,652.00
2023-04-08T05:09:12.915Z,684.00
2023-04-08T05:10:12.912Z,704.00
2023-04-08T05:11:12.897Z,740.00
2023-04-08T05:12:12.881Z,780.00
2023-04-08T05:13:12.874Z,824.00
2023-04-08T05:14:12.854Z,896.00
2023-04-08T05:15:12.854Z,992.00
2023-04-08T05:16:12.897Z,1136.00
2023-04-08T05:17:12.833Z,1368.00
2023-04-08T05:18:12.821Z,1580.00
2023-04-08T05:19:12.806Z,1636.00
2023-04-08T05:20:12.796Z,1516.00
2023-04-08T05:21:12.813Z,1464.00
2023-04-08T05:22:12.773Z,1576.00
2023-04-08T05:23:12.762Z,1816.00
2023-04-08T05:24:12.766Z,1960.00
2023-04-08T05:25:12.740Z,1976.00
2023-04-08T05:26:14.165Z,1928.00
2023-04-08T05:27:12.715Z,1832.00
2023-04-08T05:28:12.705Z,1764.00
2023-04-08T05:29:12.693Z,1724.00
2023-04-08T05:30:12.687Z,1668.00
2023-04-08T05:31:12.697Z,1604.00
2023-04-08T05:32:12.661Z,1672.00
2023-04-08T05:33:12.692Z,1852.00
2023-04-08T05:34:12.643Z,1920.00
2023-04-08T05:35:12.636Z,1820.00
2023-04-08T05:36:12.623Z,1736.00
2023-04-08T05:37:12.633Z,1724.00
2023-04-08T05:38:12.607Z,1764.00
2023-04-08T05:39:12.586Z,1792.00
2023-04-08T05:40:12.583Z,1860.00
2023-04-08T05:41:12.580Z,1872.00
2023-04-08T05:42:12.553Z,1876.00
2023-04-08T05:43:12.555Z,1892.00
2023-04-08T05:44:12.532Z,1940.00
2023-04-08T05:45:12.520Z,1956.00
2023-04-08T05:46:12.512Z,1852.00
2023-04-08T05:47:12.570Z,1816.00
2023-04-08T05:48:12.488Z,1796.00
2023-04-08T05:49:12.476Z,1788.00
2023-04-08T05:50:12.467Z,1852.00
2023-04-08T05:51:12.453Z,1988.00
2023-04-08T05:52:12.443Z,2008.00
2023-04-08T05:53:12.461Z,1988.00
2023-04-08T05:54:12.419Z,2036.00
2023-04-08T05:55:12.407Z,2072.00
2023-04-08T05:56:12.396Z,2052.00
2023-04-08T05:57:12.380Z,2000.00
2023-04-08T05:58:12.372Z,2008.00
2023-04-08T05:59:12.359Z,2000.00
2023-04-08T06:00:12.357Z,2000.00
2023-04-08T06:01:12.332Z,2088.00
2023-04-08T06:02:12.451Z,2148.00
2023-04-08T06:03:12.462Z,2188.00
2023-04-08T06:04:12.420Z,2160.00
2023-04-08T06:05:12.290Z,2136.00
2023-04-08T06:06:12.276Z,2144.00
2023-04-08T06:07:12.277Z,2180.00
2023-04-08T06:08:12.255Z,2216.00
2023-04-08T06:09:12.276Z,2276.00
2023-04-08T06:10:12.229Z,2352.00
2023-04-08T06:11:12.218Z,2396.00
2023-04-08T06:12:12.210Z,2508.00
2023-04-08T06:13:12.193Z,2648.00
2023-04-08T06:14:12.183Z,2728.00
2023-04-08T06:15:12.172Z,2684.00
2023-04-08T06:16:12.270Z,2688.00
2023-04-08T06:17:12.155Z,2816.00
2023-04-08T06:18:12.140Z,2880.00
2023-04-08T06:19:12.129Z,2900.00
2023-04-08T06:20:12.122Z,2892.00
2023-04-08T06:21:12.108Z,2924.00
2023-04-08T06:22:12.098Z,2972.00
2023-04-08T06:23:12.115Z,3048.00
2023-04-08T06:24:12.079Z,3096.00
2023-04-08T06:25:12.107Z,3212.00
2023-04-08T06:26:12.053Z,3368.00
2023-04-08T06:27:12.047Z,3456.00
2023-04-08T06:28:12.028Z,3540.00
2023-04-08T06:29:12.019Z,3732.00
2023-04-08T06:30:12.005Z,3904.00
2023-04-08T06:31:12.009Z,4104.00
2023-04-08T06:32:12.229Z,4228.00
2023-04-08T06:33:11.986Z,4368.00
2023-04-08T06:34:11.963Z,4516.00
2023-04-08T06:35:11.952Z,4580.00
2023-04-08T06:36:11.940Z,4592.00
2023-04-08T06:37:11.929Z,4492.00
2023-04-08T06:38:11.921Z,4428.00
2023-04-08T06:39:11.912Z,4496.00
2023-04-08T06:40:11.898Z,4476.00
2023-04-08T06:41:11.906Z,4484.00
2023-04-08T06:42:11.869Z,4752.00
2023-04-08T06:43:11.886Z,5260.00
2023-04-08T06:44:11.861Z,5684.00
2023-04-08T06:45:11.837Z,5284.00
2023-04-08T06:46:11.895Z,4764.00
2023-04-08T06:47:11.819Z,4832.00
2023-04-08T06:48:11.805Z,4768.00
2023-04-08T06:49:11.798Z,4580.00
2023-04-08T06:50:11.785Z,4716.00
2023-04-08T06:51:11.773Z,4972.00
2023-04-08T06:52:13.623Z,5156.00
2023-04-08T06:53:11.768Z,5236.00
2023-04-08T06:54:11.741Z,5112.00
2023-04-08T06:55:11.727Z,4976.00
2023-04-08T06:56:11.722Z,4776.00
2023-04-08T06:57:11.728Z,4716.00
2023-04-08T06:58:11.695Z,4720.00
2023-04-08T06:59:11.686Z,4528.00
2023-04-08T07:00:11.676Z,4440.00
2023-04-08T07:01:11.685Z,4492.00
2023-04-08T07:02:11.718Z,4488.00
2023-04-08T07:03:11.778Z,4364.00
2023-04-08T07:04:11.704Z,4412.00
2023-04-08T07:05:11.623Z,4772.00
2023-04-08T07:06:11.610Z,5328.00
2023-04-08T07:07:11.597Z,5852.00
2023-04-08T07:08:11.597Z,6104.00
2023-04-08T07:09:11.569Z,6176.00
2023-04-08T07:10:11.560Z,6240.00
2023-04-08T07:11:11.556Z,6192.00
2023-04-08T07:12:11.540Z,6296.00
2023-04-08T07:13:11.551Z,6616.00
2023-04-08T07:14:11.523Z,7240.00
2023-04-08T07:15:11.529Z,8492.00
2023-04-08T07:16:11.600Z,9424.00
2023-04-08T07:17:11.580Z,9724.00
2023-04-08T07:18:11.478Z,10304.00
2023-04-08T07:19:11.465Z,10468.00
2023-04-08T07:20:11.452Z,10152.00
2023-04-08T07:21:11.441Z,9612.00
2023-04-08T07:22:11.437Z,8740.00
2023-04-08T07:23:11.421Z,7096.00
2023-04-08T07:24:11.404Z,5868.00
2023-04-08T07:25:11.395Z,4712.00
2023-04-08T07:26:11.387Z,3880.00
2023-04-08T07:27:11.378Z,3480.00
2023-04-08T07:28:11.373Z,3356.00
2023-04-08T07:29:11.382Z,3340.00
2023-04-08T07:30:11.351Z,3348.00
2023-04-08T07:31:11.375Z,3372.00
2023-04-08T07:32:11.326Z,3440.00
2023-04-08T07:33:11.378Z,3676.00
2023-04-08T07:34:11.310Z,4032.00
2023-04-08T07:35:11.283Z,4520.00
2023-04-08T07:36:11.273Z,5204.00
2023-04-08T07:37:11.258Z,5800.00
2023-04-08T07:38:11.254Z,6344.00
2023-04-08T07:39:11.237Z,6844.00
2023-04-08T07:40:11.231Z,7300.00
2023-04-08T07:41:11.211Z,7628.00
2023-04-08T07:42:11.206Z,7780.00
2023-04-08T07:43:11.191Z,7880.00
2023-04-08T07:44:11.181Z,7932.00
2023-04-08T07:45:11.191Z,7716.00
2023-04-08T07:46:11.217Z,7348.00
2023-04-08T07:47:11.145Z,7048.00
2023-04-08T07:48:11.245Z,6836.00
2023-04-08T07:49:11.125Z,6880.00
2023-04-08T07:50:11.124Z,7884.00
2023-04-08T07:51:11.749Z,9088.00
2023-04-08T07:52:11.093Z,9720.00
2023-04-08T07:53:11.079Z,9920.00
2023-04-08T07:54:11.079Z,9240.00
2023-04-08T07:55:11.081Z,9184.00
2023-04-08T07:56:11.062Z,9204.00
2023-04-08T07:57:11.047Z,9312.00
2023-04-08T07:58:11.029Z,10024.00
2023-04-08T07:59:11.012Z,11572.00
2023-04-08T08:00:11.011Z,13004.00
2023-04-08T08:01:11.012Z,14844.00
2023-04-08T08:02:10.998Z,15340.00
2023-04-08T08:03:11.040Z,13408.00
2023-04-08T08:04:11.130Z,11364.00
2023-04-08T08:05:11.001Z,11028.00
2023-04-08T08:06:10.942Z,11980.00
2023-04-08T08:07:10.917Z,13064.00
2023-04-08T08:08:10.912Z,13972.00
2023-04-08T08:09:10.895Z,14896.00
2023-04-08T08:10:10.891Z,14980.00
2023-04-08T08:11:10.941Z,15020.00
2023-04-08T08:12:10.865Z,14968.00
2023-04-08T08:13:10.855Z,15656.00
2023-04-08T08:14:10.841Z,16352.00
2023-04-08T08:15:10.830Z,16704.00
2023-04-08T08:16:10.866Z,17376.00
2023-04-08T08:17:10.831Z,16384.00
2023-04-08T08:18:10.852Z,15016.00
2023-04-08T08:19:10.784Z,14480.00
2023-04-08T08:20:10.774Z,14228.00
2023-04-08T08:21:10.772Z,14132.00
2023-04-08T08:22:10.763Z,14428.00
2023-04-08T08:23:10.752Z,14484.00
2023-04-08T08:24:10.745Z,14936.00
2023-04-08T08:25:10.727Z,15304.00
2023-04-08T08:26:10.722Z,15368.00
2023-04-08T08:27:10.698Z,14872.00
2023-04-08T08:28:10.687Z,15256.00
2023-04-08T08:29:10.674Z,15684.00
2023-04-08T08:30:10.670Z,14836.00
2023-04-08T08:31:10.664Z,14608.00
2023-04-08T08:32:10.639Z,14448.00
2023-04-08T08:33:10.696Z,13956.00
2023-04-08T08:34:10.618Z,12856.00
2023-04-08T08:35:10.603Z,12984.00
2023-04-08T08:36:10.631Z,13880.00
2023-04-08T08:37:10.595Z,14824.00
2023-04-08T08:38:10.573Z,14348.00
2023-04-08T08:39:10.577Z,14136.00
2023-04-08T08:40:10.550Z,13924.00
2023-04-08T08:41:10.540Z,14496.00
2023-04-08T08:42:10.528Z,15488.00
2023-04-08T08:43:10.516Z,16008.00
2023-04-08T08:44:10.510Z,16480.00
2023-04-08T08:45:10.507Z,16576.00
2023-04-08T08:46:10.513Z,15940.00
2023-04-08T08:47:10.472Z,15428.00
2023-04-08T08:48:10.460Z,15212.00
2023-04-08T08:49:10.479Z,15120.00
2023-04-08T08:50:10.442Z,14932.00
2023-04-08T08:51:10.423Z,14652.00
2023-04-08T08:52:10.417Z,14740.00
2023-04-08T08:53:10.400Z,15244.00
2023-04-08T08:54:10.392Z,15636.00
2023-04-08T08:55:27.660Z,15628.00
2023-04-08T08:56:17.096Z,15732.00
2023-04-08T08:57:11.387Z,15864.00
2023-04-08T08:58:10.363Z,15516.00
2023-04-08T08:59:10.339Z,15092.00
2023-04-08T09:00:10.323Z,14848.00
2023-04-08T09:01:10.332Z,15084.00
2023-04-08T09:02:10.366Z,15648.00
2023-04-08T09:03:10.555Z,16544.00
2023-04-08T09:04:10.491Z,16864.00
2023-04-08T09:05:10.475Z,17088.00
2023-04-08T09:06:12.666Z,17440.00
2023-04-08T09:07:10.251Z,17056.00
2023-04-08T09:08:10.233Z,16800.00
2023-04-08T09:09:10.469Z,16324.00
2023-04-08T09:10:10.214Z,15936.00
2023-04-08T09:11:10.201Z,15952.00
2023-04-08T09:12:10.191Z,16116.00
2023-04-08T09:13:10.176Z,16576.00
2023-04-08T09:14:10.167Z,17376.00
2023-04-08T09:15:10.155Z,18272.00
2023-04-08T09:16:10.245Z,18336.00
2023-04-08T09:17:10.131Z,18528.00
2023-04-08T09:18:10.140Z,18560.00
2023-04-08T09:19:10.113Z,18144.00
2023-04-08T09:20:10.122Z,17568.00
2023-04-08T09:21:10.117Z,17216.00
2023-04-08T09:22:10.085Z,17088.00
2023-04-08T09:23:10.067Z,17312.00
2023-04-08T09:24:10.057Z,17280.00
2023-04-08T09:25:10.053Z,16896.00
2023-04-08T09:26:10.040Z,16276.00
2023-04-08T09:27:10.021Z,16128.00
2023-04-08T09:28:10.014Z,16268.00
2023-04-08T09:29:24.974Z,16104.00
2023-04-08T09:30:11.021Z,15928.00
2023-04-08T09:31:10.012Z,16212.00
2023-04-08T09:32:09.975Z,16800.00
2023-04-08T09:33:09.960Z,16896.00
2023-04-08T09:34:09.952Z,16672.00
2023-04-08T09:35:09.942Z,16268.00
2023-04-08T09:36:09.948Z,16608.00
2023-04-08T09:37:09.938Z,16864.00
2023-04-08T09:38:09.907Z,16608.00
2023-04-08T09:39:09.901Z,16040.00
2023-04-08T09:40:09.891Z,15960.00
2023-04-08T09:41:09.871Z,16512.00
2023-04-08T09:42:09.871Z,16640.00
2023-04-08T09:43:09.851Z,16032.00
2023-04-08T09:44:09.838Z,15852.00
2023-04-08T09:45:09.849Z,15684.00
2023-04-08T09:46:09.847Z,15424.00
2023-04-08T09:47:09.842Z,15940.00
2023-04-08T09:48:09.800Z,16896.00
2023-04-08T09:49:09.817Z,17024.00
2023-04-08T09:50:09.784Z,16800.00
2023-04-08T09:51:09.766Z,15956.00
2023-04-08T09:52:09.751Z,14764.00
2023-04-08T09:53:09.775Z,14264.00
2023-04-08T09:54:09.730Z,14868.00
2023-04-08T09:55:09.721Z,15840.00
2023-04-08T09:56:09.708Z,16608.00
2023-04-08T09:57:09.703Z,16896.00
2023-04-08T09:58:09.690Z,16960.00
2023-04-08T09:59:09.680Z,16576.00
2023-04-08T10:00:09.708Z,16140.00
2023-04-08T10:01:09.704Z,15696.00
2023-04-08T10:02:09.759Z,14956.00
2023-04-08T10:03:09.834Z,14932.00
2023-04-08T10:04:09.729Z,15100.00
2023-04-08T10:05:09.695Z,15084.00
2023-04-08T10:06:09.602Z,14972.00
2023-04-08T10:07:09.593Z,15488.00
2023-04-08T10:08:09.580Z,16196.00
2023-04-08T10:09:09.593Z,16768.00
2023-04-08T10:10:09.564Z,16992.00
2023-04-08T10:11:09.547Z,16960.00
2023-04-08T10:12:09.535Z,16736.00
2023-04-08T10:13:09.524Z,16928.00
2023-04-08T10:14:09.518Z,16672.00
2023-04-08T10:15:09.502Z,16160.00
2023-04-08T10:16:09.498Z,15652.00
2023-04-08T10:17:09.481Z,15548.00
2023-04-08T10:18:09.474Z,16800.00
2023-04-08T10:19:09.459Z,18368.00
2023-04-08T10:20:09.445Z,18976.00
2023-04-08T10:21:09.439Z,18624.00
2023-04-08T10:22:09.442Z,18496.00
2023-04-08T10:23:09.410Z,18688.00
2023-04-08T10:24:09.408Z,18624.00
2023-04-08T10:25:09.410Z,18208.00
2023-04-08T10:26:09.378Z,18240.00
2023-04-08T10:27:09.363Z,17856.00
2023-04-08T10:28:09.351Z,17792.00
2023-04-08T10:29:09.340Z,18336.00
2023-04-08T10:30:09.336Z,18656.00
2023-04-08T10:31:09.318Z,18496.00
2023-04-08T10:32:09.396Z,18336.00
2023-04-08T10:33:09.294Z,18176.00
2023-04-08T10:34:09.304Z,18336.00
2023-04-08T10:35:09.268Z,18176.00
2023-04-08T10:36:09.259Z,18272.00
2023-04-08T10:37:09.243Z,17760.00
2023-04-08T10:38:09.230Z,17440.00
2023-04-08T10:39:09.224Z,17536.00
2023-04-08T10:40:09.222Z,16608.00
2023-04-08T10:41:09.223Z,16156.00
2023-04-08T10:42:09.192Z,16640.00
2023-04-08T10:43:09.180Z,17088.00
2023-04-08T10:44:09.166Z,17664.00
2023-04-08T10:45:09.153Z,17856.00
2023-04-08T10:46:09.187Z,17952.00
2023-04-08T10:47:09.127Z,18176.00
2023-04-08T10:48:09.116Z,18624.00
2023-04-08T10:49:09.105Z,18912.00
2023-04-08T10:50:09.093Z,19360.00
2023-04-08T10:51:09.085Z,20192.00
2023-04-08T10:52:09.084Z,21152.00
2023-04-08T10:53:09.067Z,22144.00
2023-04-08T10:54:09.046Z,22496.00
2023-04-08T10:55:09.044Z,22144.00
2023-04-08T10:56:09.032Z,21472.00
2023-04-08T10:57:09.173Z,20864.00
2023-04-08T10:58:09.013Z,20864.00
2023-04-08T10:59:08.991Z,20352.00
2023-04-08T11:00:08.982Z,19104.00
2023-04-08T11:01:09.001Z,18720.00
2023-04-08T11:02:09.157Z,18272.00
2023-04-08T11:03:09.086Z,17792.00
2023-04-08T11:04:09.016Z,17376.00
2023-04-08T11:05:08.933Z,16928.00
2023-04-08T11:06:08.916Z,16368.00
2023-04-08T11:07:08.905Z,16264.00
2023-04-08T11:08:08.897Z,16308.00
2023-04-08T11:09:08.881Z,16704.00
2023-04-08T11:10:08.873Z,16800.00
2023-04-08T11:11:08.939Z,16672.00
2023-04-08T11:12:08.844Z,17024.00
2023-04-08T11:13:08.874Z,17472.00
2023-04-08T11:14:08.828Z,18272.00
2023-04-08T11:15:08.812Z,19136.00
2023-04-08T11:16:17.695Z,20224.00
2023-04-08T11:17:09.824Z,21024.00
2023-04-08T11:18:08.806Z,20448.00
2023-04-08T11:19:08.776Z,19168.00
2023-04-08T11:20:08.760Z,18080.00
2023-04-08T11:21:08.747Z,17664.00
2023-04-08T11:22:08.731Z,17376.00
2023-04-08T11:23:08.722Z,17248.00
2023-04-08T11:24:08.732Z,17024.00
2023-04-08T11:25:08.698Z,16992.00
2023-04-08T11:26:08.691Z,17120.00
2023-04-08T11:27:08.677Z,17824.00
2023-04-08T11:28:08.666Z,18656.00
2023-04-08T11:29:08.681Z,19200.00
2023-04-08T11:30:08.643Z,19360.00
2023-04-08T11:31:08.675Z,18912.00
2023-04-08T11:32:08.626Z,18336.00
2023-04-08T11:33:08.669Z,18272.00
2023-04-08T11:34:08.594Z,18560.00
2023-04-08T11:35:08.586Z,19776.00
2023-04-08T11:36:08.688Z,20960.00
2023-04-08T11:37:08.562Z,21728.00
2023-04-08T11:38:08.560Z,21792.00
2023-04-08T11:39:08.573Z,21568.00
2023-04-08T11:40:08.616Z,21184.00
2023-04-08T11:41:08.563Z,20992.00
2023-04-08T11:42:08.606Z,21248.00
2023-04-08T11:43:08.512Z,23456.00
2023-04-08T11:44:08.492Z,25792.00
2023-04-08T11:45:08.496Z,25760.00
2023-04-08T11:46:08.485Z,22944.00
2023-04-08T11:47:08.460Z,21728.00
2023-04-08T11:48:08.541Z,22240.00
2023-04-08T11:49:08.586Z,22720.00
2023-04-08T11:50:08.416Z,22976.00
2023-04-08T11:51:08.404Z,23712.00
2023-04-08T11:52:08.394Z,25440.00
2023-04-08T11:53:08.381Z,26080.00
2023-04-08T11:54:08.372Z,25024.00
2023-04-08T11:55:08.362Z,23936.00
2023-04-08T11:56:08.349Z,23456.00
2023-04-08T11:57:08.342Z,23200.00
2023-04-08T11:58:08.335Z,23200.00
2023-04-08T11:59:08.316Z,22496.00
2023-04-08T12:00:08.307Z,21376.00
2023-04-08T12:01:08.315Z,20480.00
2023-04-08T12:02:08.320Z,20160.00
2023-04-08T12:03:08.407Z,19904.00
2023-04-08T12:04:08.395Z,19168.00
2023-04-08T12:05:08.296Z,18592.00
2023-04-08T12:06:08.235Z,18624.00
2023-04-08T12:07:08.349Z,18848.00
2023-04-08T12:08:08.216Z,18880.00
2023-04-08T12:09:08.221Z,18944.00
2023-04-08T12:10:08.193Z,18752.00
2023-04-08T12:11:19.185Z,18592.00
2023-04-08T12:12:08.181Z,18656.00
2023-04-08T12:13:08.157Z,18656.00
2023-04-08T12:14:08.148Z,18560.00
2023-04-08T12:15:08.138Z,18336.00
2023-04-08T12:16:08.162Z,18176.00
2023-04-08T12:17:08.139Z,17728.00
2023-04-08T12:18:08.159Z,17696.00
2023-04-08T12:19:08.094Z,17632.00
2023-04-08T12:20:08.118Z,17536.00
2023-04-08T12:21:08.074Z,17440.00
2023-04-08T12:22:08.067Z,17568.00
2023-04-08T12:23:08.052Z,17952.00